Página principal
METAR-TAF:

METAR-TAF

Aeroportos :

Xangai-Pudong, China

Aeroporto Internacional de Xangai Pudong

latitude: 31-07N, longitude: 121-46E, altura: 4 m

Observação actual do tempo

O boletim foi feito há 17 minutos, às 21:00 UTC
Vento 6 kt de sul
Temperatura 16°C
Humidade 94%
Pressão 1012 hPa
Visibilidade 10 km ou mais
sem nuvens abaixo de 1500 metros e sem cumulonimbus

METAR: ZSPD 272100Z 17003MPS CAVOK 16/15 Q1012 NOSIG

Hora: 05:17 (21:17 UTC)

Previsão

O boletim foi feito há 5 horas e 52 minutos, às 15:25 UTC
Previsão válida de 27 às 18 UTC a 28 às 18 UTC
Vento 8 kt de sudeste
Visibilidade: 6000 m
Nuvens dispersasa uma altura de 2000 ft

TAF: ZSPD 271525Z 2718/2818 14004MPS 6000 SCT020 TX31/2806Z TN18/2721Z

Observações e previsões do tempo de mais de 4000 aeroportos (mensagens METAR e TAF).

As estações disponíveis são os pontos amarelos e vermelhos sobre o mapa.

Mova o rato sobre o mapa para ver o nome da estação.

Depois clique no ponto para visualizar as observações e previsões meteorológicas.

Para alterar o mapa : clique nos botões verdes com uma cruz preta para aumentar o zoom; no botão verde com uma pitada de zoom; ou nas setas verdes para mapas adjacentes.


METAR-TAF: